Flight Track Log - Related Links

Times and Time Zones

All times are in EDT time to prevent confusion due to time zone crossing. See the UAL3746 flight status page for this flight to view local times or setup timezone preferences in your user account.

Time Position Orientation Groundspeed Altitude Reporting Facility
EDT Latitude Longitude Course Direction KTS MPH feet Rate Location/Type
Mon 05:29:18 PM 42.8833 -71.4667 228° Southwest 194 223 3,500  Level KA90
Mon 05:30:25 PM 42.9181 -71.5556 298° West 204 235 6,100 2,551 Climbing Boston Center
Mon 05:31:00 PM 42.9500 -71.9861 270° West  Level FlightAware Approximate
Mon 05:31:25 PM 42.9625 -71.6372 307° West 263 303 8,900  Level Boston Center
Mon 05:32:00 PM 42.9501 -72.1255 270° West  Level FlightAware Approximate
Mon 05:32:25 PM 42.9861 -71.7419 287° West 281 323 11,500  Level Boston Center
Mon 05:33:00 PM 42.9523 -72.2648 274° West  Level FlightAware Approximate
Mon 05:33:25 PM 42.9908 -71.8553 273° West 288 331 13,500  Level Boston Center
Mon 05:34:25 PM 42.9997 -71.9831 275° West 319 367 15,500 1,800 Climbing Boston Center
Mon 05:35:25 PM 43.0064 -72.1164 274° West 351 404 17,100 1,409 Climbing Boston Center
Mon 05:36:37 PM 43.0150 -72.2583 275° West 376 433 18,600 1,500 Climbing Boston Center
Mon 05:37:37 PM 43.0297 -72.4144 277° West 382 440 20,400 1,800 Climbing Boston Center
Mon 05:38:37 PM 43.0381 -72.5650 274° West 390 449 22,200 1,800 Climbing Boston Center
Mon 05:39:37 PM 43.0378 -72.7128 270° West 397 457 24,000 1,650 Climbing Boston Center
Mon 05:40:37 PM 43.0436 -72.8606 273° West 397 457 25,500 1,550 Climbing Boston Center
Mon 05:41:37 PM 43.0553 -73.0256 276° West 397 457 27,100 1,450 Climbing Boston Center
Mon 05:42:37 PM 43.0628 -73.1761 274° West 402 463 28,400 1,200 Climbing Boston Center
Mon 05:43:37 PM 43.0700 -73.3269 274° West 402 463 29,500 1,000 Climbing Boston Center
Mon 05:44:37 PM 43.0731 -73.4747 272° West 402 463 30,400 850 Climbing Boston Center
Mon 05:45:37 PM 43.0781 -73.5969 273° West 402 463 31,200 1,000 Climbing Boston Center
Mon 05:46:37 PM 43.0844 -73.7792 273° West 402 463 32,400 1,100 Climbing Boston Center
Mon 05:47:37 PM 43.1117 -73.9275 284° West 408 470 33,400 800 Climbing Boston Center
Mon 05:48:37 PM 43.1411 -74.0761 285° West 408 470 34,000 694 Climbing Boston Center
Mon 05:49:38 PM 43.1678 -74.2306 283° West 408 470 34,800 600 Climbing Boston Center
Mon 05:50:37 PM 43.1944 -74.3881 283° West 413 475 35,200 555 Climbing Boston Center
Mon 05:51:37 PM 43.2125 -74.5397 279° West 419 482 35,900 400 Climbing Boston Center
Mon 05:52:37 PM 43.2136 -74.7022 271° West 419 482 36,000 50 Climbing Boston Center
Mon 05:53:37 PM 43.2144 -74.8703 270° West 429 494 36,000  Level Boston Center
Mon 05:54:37 PM 43.2128 -75.0383 269° West 439 505 36,000  Level Boston Center
Mon 05:55:37 PM 43.2111 -75.2036 269° West 439 505 36,000  Level Boston Center
Mon 05:56:49 PM 43.2128 -75.3803 271° West 445 512 36,000  Level Boston Center
Mon 05:58:31 PM 43.2000 -75.6500 266° West 440 506 36,000  Level Toronto Center
Mon 05:59:31 PM 43.2000 -75.8333 270° West 440 506 36,000  Level Toronto Center
Mon 06:00:09 PM 43.2075 -75.9511 275° West 441 507 36,000  Level Cleveland Center
Mon 06:01:10 PM 43.2078 -76.1164 270° West 441 507 36,000  Level Cleveland Center
Mon 06:02:10 PM 43.2058 -76.2847 269° West 441 507 36,000  Level Cleveland Center
Mon 06:03:10 PM 43.2036 -76.4531 269° West 441 507 36,000 -50 Level Cleveland Center
Mon 06:04:10 PM 43.1989 -76.6186 268° West 441 507 35,900  Descending Cleveland Center
Mon 06:05:09 PM 43.1964 -76.7897 269° West 441 507 36,000 50 Climbing Cleveland Center
Mon 06:06:10 PM 43.1933 -76.9581 269° West 441 507 36,000  Level Cleveland Center
Mon 06:07:10 PM 43.1903 -77.1261 269° West 441 507 36,000  Level Cleveland Center
Mon 06:08:09 PM 43.1869 -77.2972 269° West 441 507 36,000  Level Cleveland Center
Mon 06:09:09 PM 43.1831 -77.4683 268° West 441 507 36,000  Level Cleveland Center
Mon 06:10:09 PM 43.1794 -77.6394 268° West 441 507 36,000  Level Cleveland Center
Mon 06:11:09 PM 43.1753 -77.8075 268° West 441 507 36,000  Level Cleveland Center
Mon 06:12:10 PM 43.1708 -77.9786 268° West 446 513 36,000  Level Cleveland Center
Mon 06:13:10 PM 43.1661 -78.1467 268° West 446 513 36,000  Level Cleveland Center
Mon 06:14:09 PM 43.1611 -78.3178 268° West 446 513 36,000  Level Cleveland Center
Mon 06:15:10 PM 43.1539 -78.4858 267° West 446 513 36,000  Level Cleveland Center
Mon 06:16:10 PM 43.1486 -78.6539 268° West 446 513 36,000  Level Cleveland Center
Mon 06:17:09 PM 43.1428 -78.8192 267° West 441 507 36,000  Level Cleveland Center
Mon 06:17:31 PM 43.1333 -78.8833 259° West 440 506 36,000  Level Toronto Center
Mon 06:18:31 PM 43.1333 -79.0333 270° West 440 506 36,000  Level Toronto Center
Mon 06:19:31 PM 43.1167 -79.2000 262° West 430 495 36,000  Level Toronto Center
Mon 06:20:31 PM 43.1167 -79.3667 270° West 420 483 36,000  Level Toronto Center
Mon 06:21:31 PM 43.1000 -79.5167 261° West 410 472 36,000  Level Toronto Center
Mon 06:22:31 PM 43.1000 -79.6833 270° West 410 472 36,000  Level Toronto Center
Mon 06:23:31 PM 43.1000 -79.8333 270° West 410 472 36,000  Level Toronto Center
Mon 06:24:31 PM 43.0833 -79.9833 261° West 420 483 36,000  Level Toronto Center
Mon 06:25:31 PM 43.0833 -80.1500 270° West 420 483 36,000  Level Toronto Center
Mon 06:26:31 PM 43.0667 -80.3167 262° West 420 483 36,000  Level Toronto Center
Mon 06:27:31 PM 43.0667 -80.4833 270° West 430 495 36,000  Level Toronto Center
Mon 06:28:31 PM 43.0667 -80.6333 270° West 430 495 36,000  Level Toronto Center
Mon 06:29:31 PM 43.0500 -80.8000 262° West 420 483 36,000  Level Toronto Center
Mon 06:30:31 PM 43.0333 -80.9500 261° West 420 483 36,000  Level Toronto Center
Mon 06:31:31 PM 43.0167 -81.1167 262° West 420 483 36,000  Level Toronto Center
Mon 06:32:31 PM 43.0167 -81.2500 270° West 410 472 36,000  Level Toronto Center
Mon 06:33:31 PM 43.0167 -81.4167 270° West 410 472 36,000  Level Toronto Center
Mon 06:34:31 PM 43.0167 -81.5667 270° West 410 472 36,000  Level Toronto Center
Mon 06:35:31 PM 43.0167 -81.7333 270° West 410 472 36,000  Level Toronto Center
Mon 06:36:31 PM 43.0167 -81.8833 270° West 410 472 36,000  Level Toronto Center
Mon 06:37:31 PM 43.0000 -82.0500 262° West 410 472 36,000  Level Toronto Center
Mon 06:38:31 PM 43.0000 -82.2167 270° West 410 472 36,000  Level Toronto Center
Mon 06:39:31 PM 43.0000 -82.3500 270° West 410 472 36,000  Level Toronto Center
Mon 06:40:31 PM 43.0000 -82.5000 270° West 410 472 36,000  Level Toronto Center
Mon 06:41:31 PM 42.9833 -82.6667 262° West 410 472 36,000  Level Toronto Center
Mon 06:42:10 PM 43.0003 -82.7661 283° West 419 482 36,000  Level Cleveland Center
Mon 06:43:10 PM 42.9950 -82.9222 267° West 419 482 36,000  Level Cleveland Center
Mon 06:44:10 PM 42.9897 -83.0808 267° West 419 482 36,000  Level Cleveland Center
Mon 06:45:10 PM 42.9842 -83.2367 267° West 419 482 36,000  Level Cleveland Center
Mon 06:46:10 PM 42.9783 -83.3928 267° West 419 482 36,000  Level Cleveland Center
Mon 06:47:10 PM 42.9722 -83.5514 267° West 419 482 36,000  Level Cleveland Center
Mon 06:48:10 PM 42.9681 -83.7128 268° West 419 482 36,000  Level Cleveland Center
Mon 06:49:10 PM 42.9553 -83.8683 264° West 419 482 36,000  Level Cleveland Center
Mon 06:50:10 PM 42.9383 -84.0233 262° West 419 482 36,000  Level Cleveland Center
Mon 06:51:10 PM 42.9231 -84.1786 262° West 424 488 36,000 -400 Level Cleveland Center
Mon 06:52:10 PM 42.9075 -84.3392 263° West 424 488 35,200 -1,469 Descending Cleveland Center
Mon 06:52:48 PM 42.9003 -84.4308 264° West 416 479 33,600 -1,920 Descending Chicago Center
Mon 06:53:50 PM 42.8839 -84.5925 262° West 428 493 32,000 -774 Descending Chicago Center
Mon 06:54:52 PM 42.8639 -84.7858 262° West 429 494 32,000  Level Chicago Center
Mon 06:55:54 PM 42.8475 -84.9469 262° West 429 494 32,000  Level Chicago Center
Mon 06:56:56 PM 42.8289 -85.1117 261° West 438 504 32,000  Level Chicago Center
Mon 06:57:58 PM 42.8111 -85.2769 262° West 441 507 32,000 -97 Level Chicago Center
Mon 06:59:00 PM 42.7928 -85.4403 261° West 438 504 31,800 -1,087 Descending Chicago Center
Mon 07:00:05 PM 42.7681 -85.6036 258° West 438 504 29,700 -2,315 Descending Chicago Center
Mon 07:01:07 PM 42.7342 -85.7928 256° West 428 493 26,900 -2,468 Descending Chicago Center
Mon 07:02:09 PM 42.7067 -85.9425 256° West 409 471 24,600 -2,274 Descending Chicago Center
Mon 07:03:11 PM 42.6803 -86.0892 256° West 400 460 22,200 -2,177 Descending Chicago Center
Mon 07:04:13 PM 42.6536 -86.2283 255° West 384 442 20,100 -1,056 Descending Chicago Center
Mon 07:05:16 PM 42.6292 -86.3589 256° West 361 415 20,000 -48 Descending Chicago Center
Mon 07:06:18 PM 42.6031 -86.4922 255° West 364 419 20,000  Level Chicago Center
Mon 07:07:20 PM 42.5783 -86.6228 256° West 359 413 20,000 -968 Level Chicago Center
Mon 07:08:22 PM 42.5503 -86.7653 255° West 361 415 18,000 -2,129 Descending Chicago Center
Mon 07:09:24 PM 42.5142 -86.8972 250° West 340 391 15,600 -2,371 Descending Chicago Center
Mon 07:10:26 PM 42.4844 -87.0117 251° West 326 375 13,100 -2,468 Descending Chicago Center
Mon 07:11:28 PM 42.4531 -87.1167 248° West 306 352 10,500 -1,645 Descending Chicago Center
Mon 07:12:30 PM 42.4278 -87.2131 250° West 278 320 9,700 -726 Descending Chicago Center
Mon 07:13:32 PM 42.4039 -87.3008 250° West 254 292 9,000 -484 Descending Chicago Center
Mon 07:14:34 PM 42.3750 -87.3950 247° West 259 298 8,700 -581 Descending Chicago Center
Mon 07:15:36 PM 42.3408 -87.5028 247° West 262 302 7,800 -774 Descending Chicago Center
Mon 07:16:38 PM 42.2883 -87.5711 224° Southwest 264 304 7,100 -532 Descending Chicago Center
Mon 07:17:40 PM 42.2344 -87.6353 221° Southwest 262 302 6,700 -774 Descending Chicago Center
Mon 07:18:42 PM 42.1822 -87.6956 221° Southwest 251 289 5,500 -1,161 Descending Chicago Center
Mon 07:19:44 PM 42.1367 -87.7442 218° Southwest 220 253 4,300 -1,239 Descending Chicago Center
Mon 07:20:14 PM 42.1000 -87.7667 204° Southwest 205 236 3,600 -1,400 Descending Chicago TRACON

Login

Don't have an account? Register now (free) for customized features, flight alerts, and more!